Time;durP1;ratioP1;P1;durP2;ratioP2;P2;SDS_P1;SDS_P2;PMS_P1;PMS_P2;Temp;Humidity;BMP_temperature;BMP_pressure;BME280_temperature;BME280_humidity;BME280_pressure;Samples;Min_cycle;Max_cycle;Signal;HPM_P1;HPM_P2
2021/04/09 00:00:08;;;;;;;3.10;1.52;;;;;;;22.89;48.24;100259.38;5072509;28;20033;-62
2021/04/09 00:02:33;;;;;;;3.00;1.35;;;;;;;22.89;48.15;100262.09;5073009;28;20025;-62
2021/04/09 00:04:58;;;;;;;3.92;1.35;;;;;;;22.88;48.29;100248.63;5072991;28;20360;-62
2021/04/09 00:07:24;;;;;;;2.33;1.40;;;;;;;22.87;47.59;100242.31;5072648;28;20478;-62
2021/04/09 00:09:49;;;;;;;4.10;1.63;;;;;;;22.84;47.39;100231.75;5073040;28;20024;-62
2021/04/09 00:12:14;;;;;;;5.53;1.65;;;;;;;22.84;48.05;100228.16;5072729;28;20070;-63
2021/04/09 00:14:40;;;;;;;2.22;1.15;;;;;;;22.83;47.96;100223.75;5054957;28;20090;-62
2021/04/09 00:17:06;;;;;;;4.88;1.63;;;;;;;22.81;48.08;100221.19;5073247;28;20050;-62
2021/04/09 00:19:31;;;;;;;2.55;1.08;;;;;;;22.80;48.66;100211.28;5072625;28;20028;-62
2021/04/09 00:21:56;;;;;;;3.72;1.23;;;;;;;22.78;47.98;100205.19;5072783;28;20147;-62
2021/04/09 00:24:22;;;;;;;3.22;1.65;;;;;;;22.77;47.72;100201.59;5072759;28;20016;-62
2021/04/09 00:26:48;;;;;;;2.75;1.42;;;;;;;22.75;47.31;100200.97;5072414;28;20025;-62
2021/04/09 00:29:13;;;;;;;4.00;1.60;;;;;;;22.74;48.04;100198.47;5072506;28;20028;-62
2021/04/09 00:31:39;;;;;;;2.13;1.35;;;;;;;22.72;47.46;100197.84;5072109;28;20021;-62
2021/04/09 00:34:05;;;;;;;2.55;1.00;;;;;;;22.73;47.58;100185.81;5072409;28;20417;-62
2021/04/09 00:36:34;;;;;;;2.50;1.50;;;;;;;22.72;48.30;100184.13;5072316;28;20052;-62
2021/04/09 00:38:59;;;;;;;2.83;1.20;;;;;;;22.71;47.60;100166.84;5072517;28;20095;-62
2021/04/09 00:41:25;;;;;;;4.00;1.30;;;;;;;22.71;48.18;100160.53;5072185;28;20112;-63
2021/04/09 00:43:50;;;;;;;3.20;1.08;;;;;;;22.71;47.53;100160.53;5072526;28;20029;-62
2021/04/09 00:46:15;;;;;;;3.75;1.42;;;;;;;22.71;47.76;100153.16;5071850;28;20041;-62
2021/04/09 00:48:41;;;;;;;3.35;1.38;;;;;;;22.71;47.26;100138.63;5072450;28;20546;-63
2021/04/09 00:51:07;;;;;;;2.80;1.15;;;;;;;22.72;47.85;100140.28;5072292;28;20062;-62
2021/04/09 00:53:33;;;;;;;2.90;1.20;;;;;;;22.72;47.11;100134.81;5072123;28;20411;-62
2021/04/09 00:56:02;;;;;;;2.03;1.20;;;;;;;22.72;47.08;100121.13;5072322;28;20029;-62
2021/04/09 00:58:28;;;;;;;4.22;1.73;;;;;;;22.71;47.24;100113.97;5072580;28;20150;-62
2021/04/09 01:00:53;;;;;;;3.88;1.40;;;;;;;22.70;46.71;100120.50;5072357;28;20107;-62
2021/04/09 01:03:18;;;;;;;2.85;1.15;;;;;;;22.69;46.71;100107.84;5072382;28;20029;-62
2021/04/09 01:05:44;;;;;;;4.68;1.38;;;;;;;22.67;47.12;100104.47;5072683;28;20025;-62
2021/04/09 01:08:10;;;;;;;2.75;1.58;;;;;;;22.70;46.63;100109.53;5072125;28;20472;-62
2021/04/09 01:10:35;;;;;;;3.08;1.63;;;;;;;22.69;47.52;100096.91;5072290;28;20099;-62
2021/04/09 01:13:00;;;;;;;3.78;1.45;;;;;;;22.73;48.05;100093.50;5072237;28;20119;-62
2021/04/09 01:15:26;;;;;;;3.92;1.20;;;;;;;22.76;47.84;100086.72;5072101;28;20090;-62
2021/04/09 01:18:18;;;;;;;3.05;1.70;;;;;;;22.77;48.70;100083.78;5072237;28;20480;-62
2021/04/09 01:21:10;;;;;;;3.83;1.50;;;;;;;22.79;49.35;100072.59;5072188;28;20017;-62
2021/04/09 01:23:46;;;;;;;2.95;1.30;;;;;;;22.81;49.81;100062.25;5071874;28;20028;-61
2021/04/09 01:26:39;;;;;;;3.58;1.40;;;;;;;22.81;49.79;100054.03;5072163;28;20378;-62
2021/04/09 01:29:56;;;;;;;4.47;1.42;;;;;;;22.86;50.32;100058.91;5091068;28;20089;-62
2021/04/09 01:32:21;;;;;;;3.45;1.52;;;;;;;22.89;50.41;100047.50;5009629;28;20072;-62
2021/04/09 01:34:51;;;;;;;2.45;1.10;;;;;;;22.93;50.60;100046.81;5009991;28;20034;-62
2021/04/09 01:37:36;;;;;;;3.33;1.33;;;;;;;22.92;50.81;100042.41;5010480;28;20050;-62
2021/04/09 01:40:17;;;;;;;2.50;1.20;;;;;;;22.79;50.61;100031.50;5013614;28;20092;-62
2021/04/09 01:42:45;;;;;;;5.07;1.70;;;;;;;22.69;51.46;100014.72;5013588;28;20053;-61
2021/04/09 01:45:12;;;;;;;3.80;1.45;;;;;;;22.65;51.97;100007.97;5013443;28;20034;-62
2021/04/09 01:47:38;;;;;;;4.93;1.35;;;;;;;22.67;52.60;100011.31;5013499;28;20507;-62
2021/04/09 01:50:09;;;;;;;5.78;1.70;;;;;;;22.62;52.22;99997.44;5013443;28;20479;-62
2021/04/09 01:52:35;;;;;;;2.83;1.17;;;;;;;22.58;51.31;99990.75;5013376;28;20041;-62
2021/04/09 01:55:04;;;;;;;3.35;1.48;;;;;;;22.52;51.38;99987.81;4974838;28;20118;-62
2021/04/09 01:57:30;;;;;;;4.15;1.92;;;;;;;22.47;50.49;99982.16;4974182;28;20062;-62
2021/04/09 01:59:58;;;;;;;3.92;1.63;;;;;;;22.45;49.83;99970.56;4974327;28;20116;-62
2021/04/09 02:02:24;;;;;;;3.58;1.30;;;;;;;22.42;49.47;99959.22;4973900;28;20062;-62
2021/04/09 02:04:50;;;;;;;4.93;1.63;;;;;;;22.40;49.15;99961.34;4974358;28;20038;-62
2021/04/09 02:07:17;;;;;;;2.35;1.35;;;;;;;22.41;48.54;99946.59;4991381;28;20041;-62
2021/04/09 02:09:43;;;;;;;3.13;1.05;;;;;;;22.40;48.51;99940.28;5055303;28;20020;-62
2021/04/09 02:12:11;;;;;;;4.60;1.40;;;;;;;22.38;47.96;99936.91;5055066;28;20074;-62
2021/04/09 02:14:38;;;;;;;4.18;1.25;;;;;;;22.33;47.68;99923.03;5055166;28;20032;-62
2021/04/09 02:17:03;;;;;;;3.35;1.38;;;;;;;22.32;48.28;99921.34;5055010;28;20465;-62
2021/04/09 02:19:29;;;;;;;3.05;1.25;;;;;;;22.33;47.92;99920.28;5054832;28;20067;-62
2021/04/09 02:21:56;;;;;;;2.40;1.33;;;;;;;22.28;48.03;99903.69;5055385;28;20395;-62
2021/04/09 02:24:22;;;;;;;2.83;1.23;;;;;;;22.32;47.65;99904.94;5068900;28;20057;-62
2021/04/09 02:26:47;;;;;;;2.00;1.10;;;;;;;22.31;47.92;99896.94;5074993;28;20086;-62
2021/04/09 02:29:12;;;;;;;2.75;1.33;;;;;;;22.30;47.85;99893.34;5054671;28;20071;-62
2021/04/09 02:31:39;;;;;;;2.30;1.40;;;;;;;22.28;47.78;99892.75;5059826;28;20043;-62
2021/04/09 02:34:05;;;;;;;1.92;1.05;;;;;;;22.28;47.87;99876.31;5074679;28;20506;-62
2021/04/09 02:36:31;;;;;;;2.45;1.30;;;;;;;22.29;47.65;99878.00;5074522;28;20048;-61
2021/04/09 02:39:07;;;;;;;3.13;1.05;;;;;;;22.28;48.03;99870.84;5074665;28;20044;-62
2021/04/09 02:41:38;;;;;;;4.97;1.55;;;;;;;22.30;48.08;99862.41;5074522;28;20111;-62
2021/04/09 02:44:04;;;;;;;3.33;1.60;;;;;;;22.29;47.99;99858.81;5074514;28;20029;-62
2021/04/09 02:46:57;;;;;;;3.63;1.42;;;;;;;22.30;48.13;99841.34;5074461;28;20119;-62
2021/04/09 02:49:46;;;;;;;3.63;1.55;;;;;;;22.30;47.91;99830.38;5073989;28;20062;-62
2021/04/09 02:52:23;;;;;;;2.17;1.30;;;;;;;22.26;47.91;99829.16;5074357;28;20033;-62
2021/04/09 02:54:51;;;;;;;2.80;1.50;;;;;;;22.27;47.77;99736.91;5074243;28;20099;-62
2021/04/09 02:57:18;;;;;;;3.95;1.67;;;;;;;22.26;47.60;99735.25;5074123;28;20357;-63
2021/04/09 02:59:45;;;;;;;2.47;1.10;;;;;;;22.26;47.78;99725.13;5074364;28;20463;-62
2021/04/09 03:02:12;;;;;;;3.80;1.35;;;;;;;22.30;47.71;99818.59;5074090;28;20032;-61
2021/04/09 03:04:39;;;;;;;2.42;1.20;;;;;;;22.26;47.88;99799.03;5074605;28;20052;-61
2021/04/09 03:07:04;;;;;;;4.30;1.48;;;;;;;22.28;47.54;99788.69;5074064;28;20021;-61
2021/04/09 03:09:30;;;;;;;2.83;0.93;;;;;;;22.28;47.55;99788.69;5056159;28;20070;-61
2021/04/09 03:11:55;;;;;;;3.03;1.60;;;;;;;22.27;47.41;99781.56;5074087;28;20103;-63
2021/04/09 03:14:21;;;;;;;3.97;1.52;;;;;;;22.25;47.96;99761.78;5074128;28;20034;-62
2021/04/09 03:16:56;;;;;;;3.72;1.05;;;;;;;22.27;48.05;99765.13;5074117;28;20039;-62
2021/04/09 03:19:21;;;;;;;3.70;1.45;;;;;;;22.26;48.49;99763.44;5073658;28;20095;-62
2021/04/09 03:21:47;;;;;;;3.58;1.40;;;;;;;22.30;48.99;99764.69;5073907;28;20028;-61
2021/04/09 03:24:12;;;;;;;3.67;1.35;;;;;;;22.27;49.77;99767.03;5073278;28;20059;-62
2021/04/09 03:26:37;;;;;;;3.70;1.35;;;;;;;22.31;49.74;99766.34;5073678;28;20033;-62
2021/04/09 03:29:02;;;;;;;4.30;1.35;;;;;;;22.31;50.78;99760.88;5073620;28;20110;-62
2021/04/09 03:31:28;;;;;;;3.03;1.40;;;;;;;22.31;51.04;99749.91;5073620;28;20446;-62
2021/04/09 03:33:53;;;;;;;3.22;1.50;;;;;;;22.34;50.68;99744.03;5073641;28;20601;-62
2021/04/09 03:36:18;;;;;;;4.20;1.60;;;;;;;22.34;51.76;99738.56;5073198;28;20090;-62
2021/04/09 03:38:44;;;;;;;3.35;1.52;;;;;;;22.34;51.48;99716.66;5073537;28;20020;-62
2021/04/09 03:41:09;;;;;;;2.53;1.20;;;;;;;22.43;51.55;99712.53;5073206;28;20031;-62
2021/04/09 03:43:34;;;;;;;3.60;1.20;;;;;;;22.44;51.63;99700.53;5073417;28;20035;-62
2021/04/09 03:46:00;;;;;;;4.50;1.48;;;;;;;22.44;51.74;99700.53;5073373;28;20103;-62
2021/04/09 03:48:25;;;;;;;3.15;1.50;;;;;;;22.44;51.38;99689.56;5073133;28;20020;-63
2021/04/09 03:50:50;;;;;;;5.22;1.50;;;;;;;22.45;52.40;99683.03;5073391;28;20384;-62
2021/04/09 03:53:15;;;;;;;3.97;1.58;;;;;;;22.45;51.47;99685.78;5072772;28;20111;-62
2021/04/09 03:55:41;;;;;;;2.05;1.15;;;;;;;22.49;52.35;99666.97;5073183;28;20021;-63
2021/04/09 03:58:06;;;;;;;5.07;1.92;;;;;;;22.47;51.93;99656.25;5073385;28;20024;-62
2021/04/09 04:00:31;;;;;;;4.75;1.52;;;;;;;22.52;51.38;99653.69;5072296;28;20467;-62
2021/04/09 04:02:57;;;;;;;3.47;1.30;;;;;;;23.66;48.34;99652.03;5073144;28;20467;-62
2021/04/09 04:05:22;;;;;;;4.25;1.77;;;;;;;24.10;47.16;99635.28;5072797;28;20028;-62
2021/04/09 04:07:48;;;;;;;3.85;1.65;;;;;;;24.35;46.64;99640.53;5072956;28;20056;-62
2021/04/09 04:10:14;;;;;;;4.28;1.48;;;;;;;24.54;46.14;99622.88;5072807;28;20020;-62
2021/04/09 04:12:39;;;;;;;4.03;1.50;;;;;;;24.74;45.45;99614.22;5072931;28;20417;-62
2021/04/09 04:15:05;;;;;;;3.08;1.00;;;;;;;24.91;45.43;99606.88;5072776;28;20028;-62
2021/04/09 04:17:30;;;;;;;4.78;1.70;;;;;;;24.97;46.14;99610.56;5072763;28;20052;-63
2021/04/09 04:19:56;;;;;;;4.47;1.77;;;;;;;24.92;46.33;99603.06;5072758;28;20460;-62
2021/04/09 04:22:21;;;;;;;4.07;1.55;;;;;;;24.96;46.11;99595.16;5072579;28;20020;-63
2021/04/09 04:24:46;;;;;;;3.00;1.27;;;;;;;24.95;45.58;99579.75;5072613;28;20349;-62
2021/04/09 04:27:12;;;;;;;3.20;1.67;;;;;;;25.02;45.24;99588.69;5075888;28;20560;-62
2021/04/09 04:29:37;;;;;;;5.38;1.95;;;;;;;25.02;44.98;99581.28;5092982;28;20042;-63
2021/04/09 04:32:03;;;;;;;5.15;2.50;;;;;;;25.01;45.44;99567.78;5092416;28;20051;-62
2021/04/09 04:34:28;;;;;;;2.85;1.20;;;;;;;25.02;45.27;99563.94;5088454;28;20102;-62
2021/04/09 04:36:54;;;;;;;4.97;1.83;;;;;;;25.13;44.59;99560.31;5072497;28;20115;-62
2021/04/09 04:39:20;;;;;;;3.83;1.30;;;;;;;25.06;44.69;99563.22;5072336;28;20503;-62
2021/04/09 04:41:47;;;;;;;3.20;1.55;;;;;;;25.16;44.81;99559.81;5072590;28;20043;-62
2021/04/09 04:44:12;;;;;;;4.50;1.35;;;;;;;25.16;44.73;99559.81;5072314;28;20035;-62
2021/04/09 04:46:38;;;;;;;3.03;1.40;;;;;;;25.17;44.37;99550.50;5072434;28;20123;-62
2021/04/09 04:49:04;;;;;;;4.13;1.30;;;;;;;25.22;44.33;99536.84;5072409;28;20352;-62
2021/04/09 04:51:29;;;;;;;2.60;1.40;;;;;;;25.23;44.88;99526.69;5072431;28;20088;-62
2021/04/09 04:53:55;;;;;;;3.28;1.30;;;;;;;25.35;44.13;99536.50;5072276;28;20115;-62
2021/04/09 04:56:20;;;;;;;3.20;1.50;;;;;;;25.30;44.64;99533.69;5072467;28;20142;-62
2021/04/09 04:58:46;;;;;;;3.30;1.52;;;;;;;25.36;43.69;99521.69;5072445;28;20067;-62
2021/04/09 05:01:11;;;;;;;4.30;1.23;;;;;;;25.44;43.23;99503.94;5072192;28;20020;-62
2021/04/09 05:03:36;;;;;;;4.03;1.85;;;;;;;25.41;43.46;99499.78;5072385;28;20143;-62
2021/04/09 05:06:02;;;;;;;3.47;1.70;;;;;;;25.41;42.51;99491.50;5072242;28;20055;-62
2021/04/09 05:08:27;;;;;;;2.92;1.50;;;;;;;25.36;42.37;99494.19;5072125;28;20043;-62
2021/04/09 05:10:52;;;;;;;2.70;1.10;;;;;;;25.45;42.56;99486.34;5072697;28;20107;-62
2021/04/09 05:13:18;;;;;;;2.83;1.63;;;;;;;25.54;43.16;99495.03;5076165;28;20039;-62
2021/04/09 05:15:43;;;;;;;3.78;1.75;;;;;;;25.56;43.31;99499.19;5076325;28;20145;-62
2021/04/09 05:18:08;;;;;;;3.60;1.40;;;;;;;25.60;42.77;99494.00;5076115;28;20371;-62
2021/04/09 05:20:33;;;;;;;4.53;2.20;;;;;;;25.58;43.07;99486.00;5076064;28;20036;-62
2021/04/09 05:22:59;;;;;;;4.13;1.75;;;;;;;25.58;43.01;99485.19;5075996;28;20024;-62
2021/04/09 05:25:24;;;;;;;2.78;1.25;;;;;;;25.55;43.74;99477.44;5075924;28;20039;-62
2021/04/09 05:27:49;;;;;;;4.30;1.58;;;;;;;25.51;43.05;99474.31;5084770;28;20016;-62
2021/04/09 05:30:15;;;;;;;4.47;1.83;;;;;;;25.54;42.94;99470.25;5096086;28;20023;-61
2021/04/09 05:32:41;;;;;;;3.70;1.95;;;;;;;25.53;43.23;99474.06;5096317;28;20020;-62
2021/04/09 05:35:06;;;;;;;3.38;1.50;;;;;;;25.60;43.26;99466.50;5096130;28;20024;-62
2021/04/09 05:37:32;;;;;;;4.45;1.50;;;;;;;25.56;43.13;99455.16;5095892;28;20390;-62
2021/04/09 05:39:57;;;;;;;2.35;1.17;;;;;;;25.62;43.29;99456.91;5096116;28;20446;-62
2021/04/09 05:42:22;;;;;;;3.53;1.45;;;;;;;25.63;43.76;99454.97;5095807;28;20020;-62
2021/04/09 05:44:48;;;;;;;3.65;1.63;;;;;;;25.57;44.17;99447.75;5096145;28;20371;-62
2021/04/09 05:47:13;;;;;;;4.53;2.28;;;;;;;25.66;44.19;99443.44;5095775;28;20062;-62
2021/04/09 05:49:39;;;;;;;5.32;2.00;;;;;;;25.70;43.79;99439.16;5095973;28;20020;-62
2021/04/09 05:52:06;;;;;;;3.03;1.50;;;;;;;25.71;44.86;99435.31;5095600;28;20465;-62
2021/04/09 05:54:32;;;;;;;4.00;1.60;;;;;;;25.69;44.90;99431.97;5076273;28;20039;-61
2021/04/09 05:56:59;;;;;;;5.05;1.83;;;;;;;25.68;44.42;99427.56;5077764;28;20050;-62
2021/04/09 05:59:24;;;;;;;4.45;1.83;;;;;;;25.71;45.43;99413.31;5086334;28;20471;-62
2021/04/09 06:01:50;;;;;;;4.80;2.00;;;;;;;25.79;45.72;99426.63;5089692;28;20039;-61
2021/04/09 06:04:15;;;;;;;5.63;2.10;;;;;;;25.85;45.63;99409.06;5090084;28;20128;-62
2021/04/09 06:06:40;;;;;;;5.60;2.40;;;;;;;25.92;46.01;99409.72;5076373;28;20043;-62
2021/04/09 06:09:05;;;;;;;6.25;2.40;;;;;;;25.86;46.19;99413.50;5072519;28;20095;-62
2021/04/09 06:11:31;;;;;;;4.15;1.92;;;;;;;25.83;46.67;99394.72;5090883;28;20036;-62
2021/04/09 06:13:57;;;;;;;3.75;1.65;;;;;;;25.88;46.79;99413.25;5086307;28;20016;-62
2021/04/09 06:16:22;;;;;;;4.90;1.88;;;;;;;25.86;46.78;99416.25;5074940;28;20498;-62
2021/04/09 06:18:48;;;;;;;5.93;2.45;;;;;;;25.84;47.30;99406.56;5081529;28;20067;-62
2021/04/09 06:21:13;;;;;;;5.20;2.20;;;;;;;25.94;47.01;99366.25;5095046;28;20024;-62
2021/04/09 06:23:38;;;;;;;5.97;1.83;;;;;;;26.03;46.21;99406.03;5080832;28;20039;-62
2021/04/09 06:26:03;;;;;;;4.30;1.63;;;;;;;26.11;45.98;99409.41;5083552;28;20032;-62
2021/04/09 06:28:29;;;;;;;3.65;1.85;;;;;;;26.01;45.97;99394.41;5087413;28;20065;-62
2021/04/09 06:30:54;;;;;;;3.17;1.27;;;;;;;25.91;46.60;99388.81;5081971;28;20017;-64
2021/04/09 06:33:19;;;;;;;3.15;1.15;;;;;;;25.91;46.31;99396.22;5069245;28;20386;-63
2021/04/09 06:35:44;;;;;;;3.70;1.90;;;;;;;25.83;45.52;99383.72;5077077;28;20031;-64
2021/04/09 06:38:10;;;;;;;1.85;1.15;;;;;;;25.67;46.03;99362.56;5062036;28;20056;-64
2021/04/09 06:40:36;;;;;;;2.65;1.23;;;;;;;25.69;45.93;99374.16;5073153;28;20481;-63
2021/04/09 06:43:01;;;;;;;3.35;1.80;;;;;;;25.71;45.40;99353.59;5075158;28;20439;-64
2021/04/09 06:45:27;;;;;;;3.75;1.60;;;;;;;25.80;44.52;99340.19;5073118;28;20466;-64
2021/04/09 06:47:53;;;;;;;4.53;2.28;;;;;;;25.81;44.82;99350.13;5075025;28;20060;-64
2021/04/09 06:50:19;;;;;;;4.88;1.40;;;;;;;25.77;44.95;99336.03;5073238;28;20033;-63
2021/04/09 06:52:44;;;;;;;3.85;1.70;;;;;;;25.85;44.25;99337.50;5073954;28;20029;-64
2021/04/09 06:55:11;;;;;;;3.80;1.77;;;;;;;25.87;43.82;99329.84;5072385;28;20371;-63
2021/04/09 06:57:38;;;;;;;5.45;1.85;;;;;;;25.88;44.28;99336.19;5072912;28;20024;-63
2021/04/09 07:00:06;;;;;;;5.03;1.88;;;;;;;25.87;43.49;99327.09;5077817;28;20107;-64
2021/04/09 07:02:32;;;;;;;4.20;1.67;;;;;;;25.88;43.32;99322.41;5069989;28;20119;-64
2021/04/09 07:04:57;;;;;;;5.88;1.88;;;;;;;25.84;43.54;99324.81;5069210;28;20100;-63
2021/04/09 07:07:23;;;;;;;3.90;1.70;;;;;;;25.76;44.86;99306.84;5065706;28;20074;-64
2021/04/09 07:09:48;;;;;;;3.03;1.58;;;;;;;25.69;43.95;99328.22;5064569;28;20051;-62
2021/04/09 07:12:39;;;;;;;4.45;1.52;;;;;;;25.68;44.92;99309.22;5059767;28;20025;-63
2021/04/09 07:15:07;;;;;;;5.55;1.92;;;;;;;25.68;43.82;99332.06;5051370;28;20500;-64
2021/04/09 07:17:35;;;;;;;4.57;1.60;;;;;;;25.71;43.95;99325.25;5077293;28;20047;-64
2021/04/09 07:20:15;;;;;;;4.18;1.77;;;;;;;25.86;43.90;99316.31;5076730;28;20033;-63
2021/04/09 07:22:48;;;;;;;4.05;1.60;;;;;;;25.94;43.77;99319.44;5062401;28;20407;-63
2021/04/09 07:25:17;;;;;;;5.50;2.25;;;;;;;25.98;43.83;99330.78;5068464;28;20032;-64
2021/04/09 07:27:46;;;;;;;4.45;1.50;;;;;;;26.03;43.25;99342.69;5071998;28;20092;-65
2021/04/09 07:30:16;;;;;;;3.92;1.92;;;;;;;25.98;43.26;99337.13;5068701;28;20510;-64
2021/04/09 07:32:42;;;;;;;4.78;1.98;;;;;;;25.92;43.68;99327.13;5072181;28;20043;-65
2021/04/09 07:35:16;;;;;;;6.13;2.58;;;;;;;25.98;43.79;99344.53;5067273;28;20114;-64
2021/04/09 07:37:59;;;;;;;4.37;2.10;;;;;;;25.96;43.77;99322.78;5072476;28;20320;-63
2021/04/09 07:40:32;;;;;;;3.97;1.52;;;;;;;25.70;43.12;99285.88;5076905;28;20031;-64
2021/04/09 07:42:59;;;;;;;3.53;1.88;;;;;;;25.64;43.02;99343.81;5074759;28;20064;-64
2021/04/09 07:45:26;;;;;;;3.17;0.90;;;;;;;25.69;42.96;99338.41;5057632;28;20032;-64
2021/04/09 07:48:05;;;;;;;3.53;1.40;;;;;;;25.64;42.92;99336.38;5071990;28;20038;-64
2021/04/09 07:50:40;;;;;;;1.88;1.27;;;;;;;25.65;43.32;99353.72;5070855;28;20028;-64
2021/04/09 07:53:40;;;;;;;2.03;1.38;;;;;;;25.71;43.80;99347.25;5063668;28;20037;-64
2021/04/09 07:56:16;;;;;;;3.63;1.33;;;;;;;25.76;44.40;99339.06;5108588;27;20384;-62
2021/04/09 07:58:43;;;;;;;3.22;1.25;;;;;;;25.74;44.20;99330.22;5084820;28;20036;-62
2021/04/09 08:01:22;;;;;;;2.38;1.20;;;;;;;25.74;44.29;99341.22;5094474;28;20032;-62
2021/04/09 08:03:48;;;;;;;2.60;1.10;;;;;;;25.68;44.86;99342.25;5085429;28;20024;-63
2021/04/09 08:06:15;;;;;;;1.95;1.00;;;;;;;25.85;44.34;99323.75;5084952;28;20150;-63
2021/04/09 08:08:46;;;;;;;3.03;1.27;;;;;;;25.90;44.34;99326.56;5087529;28;20024;-65
2021/04/09 08:11:23;;;;;;;4.80;1.75;;;;;;;25.95;45.44;99329.38;5088179;28;20082;-62
2021/04/09 08:14:24;;;;;;;6.30;2.08;;;;;;;26.00;45.76;99318.41;5071932;28;20077;-62
2021/04/09 08:16:50;;;;;;;4.20;1.77;;;;;;;26.00;45.93;99318.41;5076761;28;20484;-63
2021/04/09 08:19:23;;;;;;;4.95;2.00;;;;;;;26.03;45.99;99317.91;5080765;28;20118;-63
2021/04/09 08:21:57;;;;;;;7.30;2.00;;;;;;;26.06;46.48;99306.38;5069651;28;20028;-62
2021/04/09 08:24:26;;;;;;;4.38;1.92;;;;;;;26.09;46.82;99311.38;5082415;28;20040;-63
2021/04/09 08:26:52;;;;;;;4.15;1.83;;;;;;;26.16;46.24;99289.13;5077908;28;20425;-63
2021/04/09 08:29:19;;;;;;;5.63;2.05;;;;;;;26.16;45.77;99288.28;5084863;28;20036;-64
2021/04/09 08:31:45;;;;;;;5.15;2.53;;;;;;;26.22;45.81;99285.34;5072190;28;20028;-68
2021/04/09 08:34:12;;;;;;;3.17;1.33;;;;;;;26.20;45.78;99303.19;5086111;28;20028;-63
2021/04/09 08:36:39;;;;;;;5.03;2.35;;;;;;;26.24;45.29;99296.09;5079888;28;20036;-64
2021/04/09 08:39:08;;;;;;;5.03;2.50;;;;;;;26.21;45.25;99313.16;5079756;28;20032;-64
2021/04/09 08:41:36;;;;;;;3.28;1.65;;;;;;;26.14;45.33;99316.09;5073544;28;20123;-62
2021/04/09 08:44:01;;;;;;;6.32;2.17;;;;;;;26.20;45.47;99300.44;5079133;28;20099;-63
2021/04/09 08:46:26;;;;;;;4.28;2.10;;;;;;;26.11;45.46;99277.22;5082134;28;20153;-68
2021/04/09 08:48:55;;;;;;;4.20;2.25;;;;;;;26.03;44.02;99273.88;5081810;28;20040;-63
2021/04/09 08:51:22;;;;;;;4.13;2.00;;;;;;;26.09;44.76;99305.84;5078923;28;20025;-64
2021/04/09 08:53:47;;;;;;;3.00;1.60;;;;;;;26.10;44.52;99290.16;5079798;28;20028;-63
2021/04/09 08:56:13;;;;;;;2.80;1.50;;;;;;;26.07;43.95;99291.53;5083548;28;20191;-62
2021/04/09 08:58:46;;;;;;;6.07;2.85;;;;;;;26.01;44.04;99303.56;5085112;28;20466;-61
2021/04/09 09:01:13;;;;;;;4.63;2.25;;;;;;;26.02;43.54;99299.72;5070622;28;20020;-64
2021/04/09 09:03:38;;;;;;;4.50;1.98;;;;;;;26.04;44.43;99281.03;5084621;28;20035;-62
2021/04/09 09:06:05;;;;;;;3.97;1.50;;;;;;;25.97;45.88;99291.41;5071155;28;20025;-64
2021/04/09 09:08:43;;;;;;;7.22;2.10;;;;;;;25.95;45.53;99285.31;5062069;28;20081;-65
2021/04/09 09:11:13;;;;;;;5.68;1.77;;;;;;;25.97;45.67;99271.28;5062996;28;20036;-63
2021/04/09 09:13:46;;;;;;;2.33;1.30;;;;;;;26.00;46.09;99277.13;5066644;28;20030;-64
2021/04/09 09:16:19;;;;;;;4.30;1.40;;;;;;;26.07;46.55;99287.94;5065323;28;20324;-62
2021/04/09 09:18:46;;;;;;;3.15;1.30;;;;;;;26.03;44.54;99304.16;5062930;28;20031;-62
2021/04/09 09:21:14;;;;;;;2.15;1.00;;;;;;;25.93;45.11;99317.78;5076743;28;20534;-62
2021/04/09 09:23:45;;;;;;;2.40;1.10;;;;;;;26.01;43.73;99309.06;5065714;28;20028;-67
2021/04/09 09:26:35;;;;;;;5.13;1.90;;;;;;;26.02;45.83;99305.22;5068444;28;20032;-63
2021/04/09 09:29:16;;;;;;;7.50;2.03;;;;;;;26.02;45.08;99298.88;5065516;28;20138;-65
2021/04/09 09:31:54;;;;;;;2.55;1.40;;;;;;;26.07;45.63;99297.03;5063481;28;20122;-63
2021/04/09 09:34:20;;;;;;;7.90;2.40;;;;;;;26.11;46.28;99291.00;5057983;28;20068;-63
2021/04/09 09:37:33;;;;;;;4.30;1.73;;;;;;;25.29;47.31;99278.16;5063086;28;20056;-62
2021/04/09 09:40:07;;;;;;;3.60;1.38;;;;;;;25.03;46.82;99268.72;5066886;28;20323;-60
2021/04/09 09:42:35;;;;;;;3.28;1.30;;;;;;;24.79;47.48;99312.84;5065552;28;20024;-63
2021/04/09 09:45:34;;;;;;;3.13;1.85;;;;;;;24.72;48.41;99289.38;5061956;28;20024;-64
2021/04/09 09:48:19;;;;;;;4.60;1.42;;;;;;;24.64;47.18;99301.59;5066668;28;20035;-62
2021/04/09 09:50:44;;;;;;;;;;;;;;;24.55;47.44;99289.38;5060488;28;20025;-62
2021/04/09 09:53:10;;;;;;;3.08;1.27;;;;;;;24.39;47.32;99306.69;5065385;28;19913;-62
2021/04/09 09:55:47;;;;;;;5.53;1.80;;;;;;;24.37;48.32;99306.09;5071184;28;20049;-62
2021/04/09 09:58:31;;;;;;;2.40;1.30;;;;;;;24.32;47.80;99306.81;5070365;28;20036;-62
2021/04/09 10:00:59;;;;;;;6.28;1.50;;;;;;;24.36;48.26;99307.19;5065613;28;20039;-61
2021/04/09 10:03:30;;;;;;;4.43;2.15;;;;;;;24.36;48.65;99337.41;5063624;28;20024;-62
2021/04/09 10:06:08;;;;;;;2.20;1.25;;;;;;;24.29;48.50;99308.16;5063268;28;20498;-63
2021/04/09 10:08:36;;;;;;;2.47;1.00;;;;;;;24.26;48.54;99297.63;5069194;28;20095;-62
2021/04/09 10:11:06;;;;;;;4.13;1.35;;;;;;;24.20;47.84;99315.13;5071996;28;20070;-62
2021/04/09 10:13:34;;;;;;;3.75;1.40;;;;;;;24.19;48.02;99312.63;5072003;28;20066;-62
2021/04/09 10:16:22;;;;;;;3.35;1.40;;;;;;;24.14;48.24;99305.09;5072080;28;20475;-61
2021/04/09 10:18:52;;;;;;;3.05;1.33;;;;;;;24.14;48.31;99305.09;5066753;28;20032;-62
2021/04/09 10:21:18;;;;;;;2.78;1.42;;;;;;;24.14;48.84;99301.53;5070817;28;20026;-62
2021/04/09 10:23:46;;;;;;;2.67;1.40;;;;;;;24.10;48.17;99295.69;5071132;28;20020;-62
2021/04/09 10:26:12;;;;;;;3.03;1.40;;;;;;;24.10;48.11;99316.81;5070283;28;20020;-61
2021/04/09 10:28:40;;;;;;;3.28;1.38;;;;;;;24.10;47.97;99300.34;5071316;28;20025;-62
2021/04/09 10:31:19;;;;;;;2.88;1.25;;;;;;;24.09;48.52;99301.44;5071211;28;20032;-61
2021/04/09 10:33:50;;;;;;;2.55;1.05;;;;;;;24.09;47.59;99299.53;5073489;28;20027;-62
2021/04/09 10:36:26;;;;;;;2.28;1.13;;;;;;;24.96;46.30;99274.34;5072900;28;20024;-61
2021/04/09 10:38:57;;;;;;;2.78;1.35;;;;;;;25.15;45.40;99269.44;5073134;28;20021;-62
2021/04/09 10:41:27;;;;;;;2.00;1.35;;;;;;;25.40;44.74;99272.53;5073348;28;20502;-62
2021/04/09 10:43:57;;;;;;;4.97;1.60;;;;;;;25.60;44.73;99273.88;5073484;28;20036;-62
2021/04/09 10:46:25;;;;;;;3.03;1.30;;;;;;;25.63;44.63;99278.84;5071474;28;20527;-62
2021/04/09 10:48:57;;;;;;;4.30;1.60;;;;;;;25.71;44.48;99279.28;5073508;28;20034;-61
2021/04/09 10:51:27;;;;;;;3.15;1.55;;;;;;;25.80;44.33;99274.13;5073138;28;20145;-61
2021/04/09 10:53:54;;;;;;;3.20;1.00;;;;;;;25.69;44.18;99283.34;5073299;28;20368;-62
2021/04/09 10:56:20;;;;;;;2.72;1.10;;;;;;;25.81;43.53;99292.31;5072895;28;20123;-61
2021/04/09 10:58:47;;;;;;;3.05;1.25;;;;;;;25.71;45.12;99259.19;5073098;28;20527;-62
2021/04/09 11:01:12;;;;;;;3.45;1.67;;;;;;;25.69;45.24;99266.84;5072971;28;20105;-62
2021/04/09 11:03:38;;;;;;;1.73;0.88;;;;;;;25.62;44.59;99272.53;5073117;28;20111;-62
2021/04/09 11:06:03;;;;;;;1.90;0.90;;;;;;;25.57;44.96;99274.41;5073014;28;20024;-62
2021/04/09 11:08:29;;;;;;;2.22;1.13;;;;;;;25.61;43.35;99259.03;5066737;28;20421;-61
2021/04/09 11:11:13;;;;;;;2.45;1.05;;;;;;;25.53;43.06;99262.22;5072637;28;20115;-62
2021/04/09 11:13:41;;;;;;;4.47;0.90;;;;;;;25.59;42.93;99251.03;5071934;28;20029;-61
2021/04/09 11:16:11;;;;;;;1.88;0.77;;;;;;;25.51;42.25;99237.72;5069215;28;20028;-61
2021/04/09 11:18:49;;;;;;;3.03;1.00;;;;;;;25.52;42.45;99244.88;5064077;28;20024;-61
2021/04/09 11:21:16;;;;;;;1.58;0.80;;;;;;;25.59;42.12;99229.03;5068285;28;20040;-61
2021/04/09 11:23:41;;;;;;;2.17;0.95;;;;;;;25.58;42.75;99227.38;5067845;28;20115;-61
2021/04/09 11:26:19;;;;;;;1.95;1.15;;;;;;;25.61;43.31;99220.50;5072047;28;20099;-62
2021/04/09 11:28:53;;;;;;;1.63;0.80;;;;;;;25.64;43.67;99186.97;5070787;28;20031;-61
2021/04/09 11:31:25;;;;;;;4.07;0.80;;;;;;;25.61;43.40;99193.00;5070343;28;20490;-62
2021/04/09 11:34:05;;;;;;;2.38;1.10;;;;;;;25.82;43.09;99169.28;5069498;28;20032;-62
2021/04/09 11:36:38;;;;;;;5.00;1.63;;;;;;;26.13;44.60;99189.69;5068661;28;20531;-61
2021/04/09 11:39:07;;;;;;;3.60;1.37;;;;;;;26.16;44.90;99172.63;5068824;28;20427;-60